Time;durP1;ratioP1;P1;durP2;ratioP2;P2;SDS_P1;SDS_P2;PMS_P1;PMS_P2;Temp;Humidity;BMP_temperature;BMP_pressure;BME280_temperature;BME280_humidity;BME280_pressure;Samples;Min_cycle;Max_cycle;Signal;HPM_P1;HPM_P2
2023/10/01 00:01:09;120945.00;0.40;209.71;0.00;0.00;0.62;;;;;19.60;1.00;;;;;;2280059;60;1381;-87
2023/10/01 00:03:36;214047.00;0.71;370.10;32942.00;0.11;57.68;;;;;19.50;1.00;;;;;;2280565;60;906;-87
2023/10/01 00:06:04;0.00;0.00;0.62;0.00;0.00;0.62;;;;;19.50;1.00;;;;;;2280616;60;2357;-87
2023/10/01 00:08:33;71480.00;0.24;124.32;0.00;0.00;0.62;;;;;19.60;1.00;;;;;;2280684;60;1582;-88
2023/10/01 00:11:02;23155.00;0.08;40.73;0.00;0.00;0.62;;;;;19.50;1.00;;;;;;2280689;60;1375;-88
2023/10/01 00:13:29;151620.00;0.51;262.60;0.00;0.00;0.62;;;;;19.70;1.00;;;;;;2280636;60;1041;-88
2023/10/01 00:15:56;90399.00;0.30;157.00;0.00;0.00;0.62;;;;;19.70;1.00;;;;;;2280642;60;1588;-87
2023/10/01 00:18:24;467280.00;1.56;805.51;28355.00;0.09;49.74;;;;;20.00;1.00;;;;;;2280607;60;2000;-87
2023/10/01 00:20:51;137962.00;0.46;239.06;39418.00;0.13;68.88;;;;;20.00;1.00;;;;;;2280710;60;1387;-88
2023/10/01 00:23:18;167663.00;0.56;290.24;0.00;0.00;0.62;;;;;20.00;1.00;;;;;;2280680;60;1020;-88
2023/10/01 00:28:14;199051.00;0.66;344.29;0.00;0.00;0.62;;;;;19.70;1.00;;;;;;2282089;61;1375;-87
2023/10/01 00:30:41;69975.00;0.23;121.72;0.00;0.00;0.62;;;;;19.80;1.00;;;;;;2280592;61;1250;-87
2023/10/01 00:33:10;0.00;0.00;0.62;0.00;0.00;0.62;;;;;19.90;1.00;;;;;;2280694;61;959;-88
2023/10/01 00:35:40;811.00;0.00;2.03;0.00;0.00;0.62;;;;;20.10;1.00;;;;;;2280717;61;1264;-88
2023/10/01 00:38:06;22441.00;0.07;39.50;0.00;0.00;0.62;;;;;20.00;1.00;;;;;;2280677;61;1919;-88
2023/10/01 00:40:33;146091.00;0.49;253.07;0.00;0.00;0.62;;;;;19.50;1.00;;;;;;2280575;61;1396;-88
2023/10/01 00:43:02;235121.00;0.78;406.36;0.00;0.00;0.62;;;;;19.30;1.00;;;;;;2280632;61;1470;-88
2023/10/01 00:45:31;73065.00;0.24;127.06;0.00;0.00;0.62;;;;;19.40;1.00;;;;;;2280490;61;984;-88
2023/10/01 00:48:04;401062.00;1.34;691.63;31582.00;0.11;55.32;;;;;19.60;1.00;;;;;;2280557;61;1237;-87
2023/10/01 00:50:34;115478.00;0.38;200.28;0.00;0.00;0.62;;;;;19.60;1.00;;;;;;2280516;61;1359;-87
2023/10/01 00:53:02;65003.00;0.22;113.12;0.00;0.00;0.62;;;;;19.40;1.00;;;;;;2280524;61;1653;-88
2023/10/01 00:55:28;159129.00;0.53;275.54;0.00;0.00;0.62;;;;;19.40;1.00;;;;;;2280532;61;1128;-86
2023/10/01 00:57:56;427776.00;1.43;737.56;18472.00;0.06;32.62;;;;;19.30;1.00;;;;;;2280504;61;1996;-86
2023/10/01 01:00:26;69215.00;0.23;120.40;0.00;0.00;0.62;;;;;19.30;1.00;;;;;;2280456;61;1350;-88
2023/10/01 01:03:00;113954.00;0.38;197.65;0.00;0.00;0.62;;;;;19.20;1.00;;;;;;2280461;61;1068;-88
2023/10/01 01:05:34;175509.00;0.59;303.76;0.00;0.00;0.62;;;;;19.40;1.00;;;;;;2280551;61;1200;-87
2023/10/01 01:08:04;125208.00;0.42;217.07;0.00;0.00;0.62;;;;;19.60;1.00;;;;;;2280471;61;1263;-88
2023/10/01 01:10:39;188362.00;0.63;325.89;0.00;0.00;0.62;;;;;19.70;1.00;;;;;;2280483;61;1360;-88
2023/10/01 01:13:06;0.00;0.00;0.62;0.00;0.00;0.62;;;;;19.80;1.00;;;;;;2280452;61;1761;-87
2023/10/01 01:15:34;60003.00;0.20;104.48;0.00;0.00;0.62;;;;;19.70;1.00;;;;;;2280288;61;1124;-86
2023/10/01 01:18:06;0.00;0.00;0.62;0.00;0.00;0.62;;;;;19.50;1.00;;;;;;2280400;61;2005;-88
2023/10/01 01:20:36;22918.00;0.08;40.32;0.00;0.00;0.62;;;;;19.20;1.00;;;;;;2280409;61;1559;-88
2023/10/01 01:23:05;101515.00;0.34;176.19;0.00;0.00;0.62;;;;;18.90;1.00;;;;;;2280526;61;1600;-88
2023/10/01 01:25:32;189111.00;0.63;327.18;0.00;0.00;0.62;;;;;19.00;1.00;;;;;;2280423;61;1668;-88
2023/10/01 01:28:00;42362.00;0.14;73.97;0.00;0.00;0.62;;;;;19.30;1.00;;;;;;2280375;61;1093;-88
2023/10/01 01:30:29;176709.00;0.59;305.82;0.00;0.00;0.62;;;;;19.40;1.00;;;;;;2280442;61;1263;-88
2023/10/01 01:32:57;121663.00;0.41;210.95;35175.00;0.12;61.54;;;;;19.40;1.00;;;;;;2280512;61;1106;-88
2023/10/01 01:35:28;114992.00;0.38;199.44;0.00;0.00;0.62;;;;;19.40;1.00;;;;;;2280382;61;1412;-89
2023/10/01 01:37:58;41646.00;0.14;72.74;0.00;0.00;0.62;;;;;19.10;1.00;;;;;;2280512;61;1098;-88
2023/10/01 01:40:31;68500.00;0.23;119.17;0.00;0.00;0.62;;;;;19.20;1.00;;;;;;2280425;61;2011;-88
2023/10/01 01:43:04;196114.00;0.65;339.23;0.00;0.00;0.62;;;;;19.40;1.00;;;;;;2280296;61;1046;-89
2023/10/01 01:45:33;31982.00;0.11;56.01;0.00;0.00;0.62;;;;;19.60;1.00;;;;;;2280427;61;1188;-88
2023/10/01 01:48:00;19534.00;0.07;34.46;0.00;0.00;0.62;;;;;19.40;1.00;;;;;;2280398;61;1727;-90
2023/10/01 01:50:27;36477.00;0.12;63.79;0.00;0.00;0.62;;;;;19.60;1.00;;;;;;2280425;61;1332;-88
2023/10/01 01:52:57;174890.00;0.58;302.69;0.00;0.00;0.62;;;;;19.50;1.00;;;;;;2280338;61;974;-87
2023/10/01 01:55:29;38454.00;0.13;67.21;0.00;0.00;0.62;;;;;19.40;1.00;;;;;;2280315;61;1006;-89
2023/10/01 02:03:14;240837.00;0.80;416.19;0.00;0.00;0.62;;;;;17.70;1.00;;;;;;2282477;61;1949;-86
2023/10/01 02:05:42;71087.00;0.24;123.64;0.00;0.00;0.62;;;;;17.40;1.00;;;;;;2280352;61;1298;-88
2023/10/01 02:08:20;251749.00;0.84;434.96;0.00;0.00;0.62;;;;;17.80;1.00;;;;;;2280248;61;1130;-88
2023/10/01 02:10:52;81073.00;0.27;140.89;0.00;0.00;0.62;;;;;18.30;1.00;;;;;;2280294;60;1460;-87
2023/10/01 02:13:21;172569.00;0.58;298.69;8102.00;0.03;14.66;;;;;18.50;1.00;;;;;;2280341;60;1251;-89
2023/10/01 02:15:48;31375.00;0.10;54.96;0.00;0.00;0.62;;;;;18.20;1.00;;;;;;2280275;60;1145;-88
2023/10/01 02:18:16;347158.00;1.16;598.98;35800.00;0.12;62.62;;;;;17.60;1.00;;;;;;2280379;60;1087;-87
2023/10/01 02:20:45;163642.00;0.55;283.31;0.00;0.00;0.62;;;;;17.10;1.00;;;;;;2280205;60;2088;-88
2023/10/01 02:23:13;92958.00;0.31;161.42;0.00;0.00;0.62;;;;;17.20;1.00;;;;;;2280203;60;1588;-88
2023/10/01 02:25:45;200023.00;0.67;345.96;0.00;0.00;0.62;;;;;17.00;1.00;;;;;;2280098;60;1111;-90
2023/10/01 02:28:15;199244.00;0.66;344.62;0.00;0.00;0.62;;;;;16.70;1.00;;;;;;2280211;60;1057;-88
2023/10/01 02:30:44;189607.00;0.63;328.03;0.00;0.00;0.62;;;;;16.90;1.00;;;;;;2280115;60;1968;-87
2023/10/01 02:33:18;74544.00;0.25;129.61;0.00;0.00;0.62;;;;;17.20;1.00;;;;;;2280267;60;1186;-87
2023/10/01 02:35:48;460934.00;1.54;794.59;28944.00;0.10;50.76;;;;;17.50;1.00;;;;;;2280206;60;1115;-86
2023/10/01 02:41:09;313118.00;1.04;540.47;0.00;0.00;0.62;;;;;18.00;1.00;;;;;;2282897;39;3604;-88
2023/10/01 02:43:41;113497.00;0.38;196.86;0.00;0.00;0.62;;;;;18.20;1.00;;;;;;2280245;60;1102;-87
2023/10/01 02:46:11;122625.00;0.41;212.61;0.00;0.00;0.62;;;;;18.40;1.00;;;;;;2280267;60;932;-85
2023/10/01 02:48:40;27122.00;0.09;47.60;0.00;0.00;0.62;;;;;18.20;1.00;;;;;;2280092;60;968;-87
2023/10/01 02:51:16;126076.00;0.42;218.56;0.00;0.00;0.62;;;;;18.00;1.00;;;;;;2280107;60;1325;-86
2023/10/01 02:53:43;207730.00;0.69;359.23;0.00;0.00;0.62;;;;;17.70;1.00;;;;;;2280205;60;1102;-87
2023/10/01 02:56:12;122727.00;0.41;212.79;0.00;0.00;0.62;;;;;17.90;1.00;;;;;;2280063;60;1506;-87
2023/10/01 02:58:49;190260.00;0.63;329.16;28954.00;0.10;50.77;;;;;17.80;1.00;;;;;;2280154;60;1997;-88
2023/10/01 03:01:15;460927.00;1.54;794.58;84041.00;0.28;146.02;;;;;17.80;1.00;;;;;;2280173;60;1743;-88
2023/10/01 03:03:42;265168.00;0.88;458.04;0.00;0.00;0.62;;;;;17.20;1.00;;;;;;2287807;56;3905;-87
2023/10/01 03:06:09;210274.00;0.70;363.61;0.00;0.00;0.62;;;;;17.20;1.00;;;;;;2280455;60;1084;-87
2023/10/01 03:11:24;72456.00;0.24;126.00;0.00;0.00;0.62;;;;;17.20;1.00;;;;;;2280348;60;2236;-87
2023/10/01 03:13:54;163268.00;0.54;282.67;25666.00;0.09;45.08;;;;;17.00;1.00;;;;;;2280411;60;1505;-86
2023/10/01 03:16:42;232058.00;0.77;401.09;24684.00;0.08;43.38;;;;;16.90;1.00;;;;;;2280379;60;1030;-86
2023/10/01 03:19:25;50755.00;0.17;88.49;0.00;0.00;0.62;;;;;16.90;1.00;;;;;;2280455;60;1994;-86
2023/10/01 03:24:43;177140.00;0.59;306.56;0.00;0.00;0.62;;;;;15.80;1.00;;;;;;2280492;60;661;-88
2023/10/01 03:27:20;176050.00;0.59;304.69;0.00;0.00;0.62;;;;;16.10;1.00;;;;;;2280485;60;1603;-87
2023/10/01 03:30:00;84349.00;0.28;146.55;0.00;0.00;0.62;;;;;16.50;1.00;;;;;;2280384;60;1395;-88
2023/10/01 03:32:28;170694.00;0.57;295.46;0.00;0.00;0.62;;;;;16.80;1.00;;;;;;2280359;60;1624;-86
2023/10/01 03:34:55;527394.00;1.76;909.00;22410.00;0.07;39.44;;;;;16.50;1.00;;;;;;2280473;60;1004;-87
2023/10/01 03:37:27;807708.00;2.69;1394.57;0.00;0.00;0.62;;;;;16.30;1.00;;;;;;2280112;60;1006;-88
2023/10/01 03:40:04;919127.00;3.06;1589.74;124509.00;0.42;215.86;;;;;16.00;1.00;;;;;;2280273;60;2002;-87
2023/10/01 03:42:33;682301.00;2.27;1176.56;16729.00;0.06;29.61;;;;;15.90;1.00;;;;;;2280296;60;2184;-87
2023/10/01 03:47:42;948977.00;3.16;1642.31;40301.00;0.13;70.41;;;;;15.70;1.00;;;;;;2280301;60;1588;-88
2023/10/01 03:50:09;275513.00;0.92;475.82;81038.00;0.27;140.83;;;;;15.80;1.00;;;;;;2280264;60;1554;-88
2023/10/01 03:52:40;438908.00;1.46;756.70;113401.00;0.38;196.70;;;;;15.70;1.00;;;;;;2280366;60;1580;-89
2023/10/01 03:55:26;408021.00;1.36;703.59;75843.00;0.25;131.86;;;;;15.80;1.00;;;;;;2280351;60;1135;-88
2023/10/01 03:57:55;969846.00;3.23;1679.14;25864.00;0.09;45.42;;;;;16.10;1.00;;;;;;2280232;60;1541;-89
2023/10/01 04:00:31;1120882.00;3.74;1947.81;25129.00;0.08;44.15;;;;;15.90;1.00;;;;;;2280282;60;1994;-86
2023/10/01 04:02:58;783280.00;2.61;1351.98;10976.00;0.04;19.64;;;;;15.60;1.00;;;;;;2280338;60;1711;-88
2023/10/01 04:05:31;286604.00;0.96;494.89;84940.00;0.28;147.57;;;;;15.50;1.00;;;;;;2280186;60;1030;-89
2023/10/01 04:08:04;123354664.00;411.18;76042152.00;69651.00;0.23;121.16;;;;;15.90;1.00;;;;;;2280253;60;1589;-88
2023/10/01 04:10:32;916669.00;3.06;1585.42;75949.00;0.25;132.04;;;;;15.80;1.00;;;;;;2280294;60;1386;-87
2023/10/01 04:13:12;657812.00;2.19;1134.15;127520.00;0.43;221.05;;;;;15.70;1.00;;;;;;2280297;60;1612;-86
2023/10/01 04:15:43;767939.00;2.56;1325.27;118840.00;0.40;206.08;;;;;15.30;1.00;;;;;;2280198;60;1181;-87
2023/10/01 04:18:19;1040956.00;3.47;1805.15;117960.00;0.39;204.56;;;;;14.90;1.00;;;;;;2280277;60;1000;-87
2023/10/01 04:20:48;896762.00;2.99;1550.43;121599.00;0.41;210.84;;;;;14.70;1.00;;;;;;2280274;60;1976;-89
2023/10/01 04:23:23;426394.00;1.42;735.18;35062.00;0.12;61.34;;;;;14.70;1.00;;;;;;2280317;60;925;-89
2023/10/01 04:25:51;599319.00;2.00;1033.04;83619.00;0.28;145.29;;;;;14.90;1.00;;;;;;2280262;60;1035;-88
2023/10/01 04:28:18;722053.00;2.41;1245.50;100513.00;0.34;174.46;;;;;14.90;1.00;;;;;;2280228;60;1022;-88
2023/10/01 04:30:51;592169.00;1.97;1020.70;84571.00;0.28;146.93;;;;;15.20;1.00;;;;;;2280254;60;1604;-86
2023/10/01 04:33:18;641970.00;2.14;1106.75;122964.00;0.41;213.19;;;;;15.40;1.00;;;;;;2280326;60;1306;-87
2023/10/01 04:35:51;552971.00;1.84;953.08;135020.00;0.45;233.99;;;;;15.30;1.00;;;;;;2280277;60;1043;-88
2023/10/01 04:38:20;327184.00;1.09;564.65;83916.00;0.28;145.80;;;;;15.10;1.00;;;;;;2280287;60;1131;-87
2023/10/01 04:40:48;464862.00;1.55;801.35;114437.00;0.38;198.49;;;;;15.20;1.00;;;;;;2280167;60;2008;-87
2023/10/01 04:43:16;305298.00;1.02;527.03;78684.00;0.26;136.76;;;;;15.00;1.00;;;;;;2280298;60;1109;-88
2023/10/01 04:45:44;337440.00;1.12;582.27;79088.00;0.26;137.46;;;;;14.90;1.00;;;;;;2280238;60;1030;-90
2023/10/01 04:48:16;320907.00;1.07;553.86;77574.00;0.26;134.85;;;;;15.30;1.00;;;;;;2280216;60;1016;-88
2023/10/01 04:50:44;251890.00;0.84;435.20;88145.00;0.29;153.10;;;;;15.60;1.00;;;;;;2280860;60;1592;-88
2023/10/01 04:53:13;183924.00;0.61;318.25;83664.00;0.28;145.37;;;;;16.10;1.00;;;;;;2280996;60;1231;-88
2023/10/01 04:55:42;387371.00;1.29;668.10;79838.00;0.27;138.76;;;;;16.40;1.00;;;;;;2280926;60;1103;-87
2023/10/01 04:58:12;402874.00;1.34;694.75;81989.00;0.27;142.47;;;;;16.50;1.00;;;;;;2280877;60;1468;-89
2023/10/01 05:00:40;323984.00;1.08;559.15;67564.00;0.23;117.55;;;;;15.80;1.00;;;;;;2280884;60;1919;-88
2023/10/01 05:03:08;472146.00;1.57;813.88;72766.00;0.24;126.54;;;;;15.70;1.00;;;;;;2280787;60;1527;-87
2023/10/01 05:05:37;368953.00;1.23;636.44;104364.00;0.35;181.10;;;;;15.60;1.00;;;;;;2280914;60;1113;-87
2023/10/01 05:08:05;361501.00;1.21;623.63;73563.00;0.25;127.92;;;;;15.70;1.00;;;;;;2280915;60;1654;-88
2023/10/01 05:10:50;333792.00;1.11;576.00;94944.00;0.32;164.84;;;;;15.20;1.00;;;;;;2280889;60;1359;-88
2023/10/01 05:13:20;400632.00;1.34;690.89;107061.00;0.36;185.76;;;;;14.70;1.00;;;;;;2280842;60;1677;-87
2023/10/01 05:15:49;626091.00;2.09;1079.29;93626.00;0.31;162.57;;;;;14.50;1.20;;;;;;2280804;60;1466;-87
2023/10/01 05:18:17;258875.00;0.86;447.21;84709.00;0.28;147.17;;;;;14.70;1.00;;;;;;2280784;60;1722;-89
2023/10/01 05:20:48;215576.00;0.72;372.73;89505.00;0.30;155.45;;;;;15.00;1.00;;;;;;2280748;60;1923;-88
2023/10/01 05:23:15;175776.00;0.59;304.22;72466.00;0.24;126.02;;;;;15.00;1.00;;;;;;2280361;60;961;-89
2023/10/01 05:25:45;158163.00;0.53;273.87;0.00;0.00;0.62;;;;;15.00;1.00;;;;;;2280415;60;1105;-90
2023/10/01 05:28:23;162258.00;0.54;280.93;0.00;0.00;0.62;;;;;14.90;1.00;;;;;;2280802;60;1113;-89
2023/10/01 05:30:57;128341152.00;427.80;85651488.00;127872784.00;426.24;84716288.00;;;;;14.90;1.00;;;;;;2280778;60;1727;-90
2023/10/01 05:33:25;124762120.00;415.87;78677368.00;82565.00;0.28;143.47;;;;;15.00;1.00;;;;;;2280881;60;1073;-89
2023/10/01 05:35:57;346644.00;1.16;598.09;89351.00;0.30;155.19;;;;;15.20;1.00;;;;;;2280791;60;1043;-86
2023/10/01 05:38:26;306630.00;1.02;529.32;89561.00;0.30;155.55;;;;;15.80;1.00;;;;;;2280816;60;1100;-87
2023/10/01 05:40:54;506675.00;1.69;873.32;69331.00;0.23;120.60;;;;;16.30;1.00;;;;;;2280700;60;1998;-87
2023/10/01 05:43:27;435006.00;1.45;749.99;94078.00;0.31;163.35;;;;;16.80;1.00;;;;;;2280757;60;1142;-85
2023/10/01 05:46:01;269480.00;0.90;465.45;79336.00;0.26;137.89;;;;;17.10;1.00;;;;;;2280761;60;1133;-87
2023/10/01 05:48:29;756974.00;2.52;1306.19;128643.00;0.43;222.99;;;;;17.00;1.00;;;;;;2280777;60;1095;-87
2023/10/01 05:50:59;1116963.00;3.72;1940.79;136788.00;0.46;237.03;;;;;16.90;1.00;;;;;;2280704;60;1375;-86
2023/10/01 05:53:26;799956.00;2.67;1381.05;170583.00;0.57;295.27;;;;;17.20;1.00;;;;;;2280654;60;1605;-87
2023/10/01 05:55:54;260992.00;0.87;450.85;78379.00;0.26;136.24;;;;;17.50;1.00;;;;;;2280726;60;1266;-86
2023/10/01 05:58:21;118206424.00;394.02;66905188.00;77434.00;0.26;134.60;;;;;17.40;1.00;;;;;;2280651;60;1764;-87
2023/10/01 06:00:57;198843.00;0.66;343.93;76780.00;0.26;133.47;;;;;17.00;1.00;;;;;;2280479;60;1993;-87
2023/10/01 06:03:26;411480.00;1.37;709.54;72017.00;0.24;125.25;;;;;16.80;1.00;;;;;;2280609;60;1744;-86
2023/10/01 06:05:57;261310.00;0.87;451.40;80288.00;0.27;139.53;;;;;16.60;1.00;;;;;;2280718;60;1062;-88
2023/10/01 06:08:26;291030.00;0.97;502.50;92815.00;0.31;161.17;;;;;16.90;1.00;;;;;;2280619;60;1630;-87
2023/10/01 06:11:04;342199.00;1.14;590.45;81209.00;0.27;141.13;;;;;16.60;1.00;;;;;;2280609;60;1730;-89
2023/10/01 06:13:34;347608.00;1.16;599.75;129225.00;0.43;223.99;;;;;17.20;1.00;;;;;;2280678;60;1132;-87
2023/10/01 06:16:11;509955.00;1.70;878.96;69896.00;0.23;121.58;;;;;17.20;1.00;;;;;;2280672;60;1727;-87
2023/10/01 06:18:42;92265.00;0.31;160.22;24501.00;0.08;43.06;;;;;17.50;1.00;;;;;;2280696;60;1046;-88
2023/10/01 06:21:10;44476.00;0.15;77.63;0.00;0.00;0.62;;;;;18.40;1.00;;;;;;2280598;60;1931;-87
2023/10/01 06:23:49;0.00;0.00;0.62;82826.00;0.28;143.92;;;;;18.80;1.00;;;;;;2280622;60;950;-86
2023/10/01 06:26:18;129551616.00;431.84;88100352.00;0.00;0.00;0.62;;;;;19.00;1.00;;;;;;2280651;60;1231;-87
2023/10/01 06:28:44;151498.00;0.50;262.39;22913.00;0.08;40.31;;;;;19.20;1.00;;;;;;2280553;60;1122;-87
2023/10/01 06:31:11;225044.00;0.75;389.02;36391.00;0.12;63.64;;;;;19.00;1.00;;;;;;2280603;60;1411;-86
2023/10/01 06:33:38;155938.00;0.52;270.04;0.00;0.00;0.62;;;;;19.20;1.00;;;;;;2280553;60;1576;-86
2023/10/01 06:36:16;147373.00;0.49;255.28;4641.00;0.02;8.66;;;;;19.30;1.00;;;;;;2280602;60;1098;-86
2023/10/01 06:38:45;48630.00;0.16;84.82;0.00;0.00;0.62;;;;;19.10;1.00;;;;;;2280626;60;1115;-86
2023/10/01 06:41:16;106013.00;0.35;183.95;0.00;0.00;0.62;;;;;19.30;1.00;;;;;;2280510;60;1919;-86
2023/10/01 06:43:55;174897.00;0.58;302.70;0.00;0.00;0.62;;;;;19.30;1.00;;;;;;2280588;60;1021;-87
2023/10/01 06:46:27;51245.00;0.17;89.34;0.00;0.00;0.62;;;;;19.70;1.00;;;;;;2280497;60;1063;-87
2023/10/01 06:48:56;122375608.00;407.92;74244200.00;122082056.00;406.94;73710696.00;;;;;19.80;1.00;;;;;;2280497;60;1695;-86
2023/10/01 06:51:24;248702.00;0.83;429.72;74948.00;0.25;130.31;;;;;19.70;1.00;;;;;;2280504;60;1378;-85
2023/10/01 06:53:59;36560.00;0.12;63.94;0.00;0.00;0.62;;;;;19.20;1.00;;;;;;2280529;60;1098;-87
2023/10/01 06:56:29;166925.00;0.56;288.97;78175.00;0.26;135.88;;;;;19.30;1.00;;;;;;2280556;60;1136;-86
2023/10/01 06:59:12;211384.00;0.70;365.52;0.00;0.00;0.62;;;;;19.60;1.00;;;;;;2280525;60;1151;-87
2023/10/01 07:01:46;432746.00;1.44;746.11;81764.00;0.27;142.08;;;;;19.90;1.00;;;;;;2280412;60;2038;-86
2023/10/01 07:04:15;594742.00;1.98;1025.14;73971.00;0.25;128.62;;;;;20.20;1.00;;;;;;2280467;60;1156;-86
2023/10/01 07:06:44;355980.00;1.19;614.14;70714.00;0.24;122.99;;;;;20.40;1.00;;;;;;2280485;60;2011;-88
2023/10/01 07:09:27;454368.00;1.51;783.30;77697.00;0.26;135.06;;;;;19.80;1.00;;;;;;2280410;60;1166;-87
2023/10/01 07:11:56;760465.00;2.53;1312.26;89156.00;0.30;154.85;;;;;19.90;1.00;;;;;;2280240;60;1705;-86
2023/10/01 07:14:31;759457.00;2.53;1310.51;98206.00;0.33;170.48;;;;;20.30;1.00;;;;;;2280347;60;1121;-87
2023/10/01 07:17:00;561981.00;1.87;968.62;64421.00;0.21;112.12;;;;;20.30;1.00;;;;;;2280514;60;2422;-88
2023/10/01 07:19:27;640835.00;2.14;1104.78;26734.00;0.09;46.93;;;;;20.40;1.00;;;;;;2280488;60;1337;-88
2023/10/01 07:21:58;875748.00;2.92;1513.56;123628.00;0.41;214.34;;;;;20.70;1.00;;;;;;2280369;60;1932;-88
2023/10/01 07:24:29;851129.00;2.84;1470.44;104443.00;0.35;181.24;;;;;21.20;1.00;;;;;;2282218;55;3741;-88
2023/10/01 07:27:03;815443.00;2.72;1408.07;120667.00;0.40;209.23;;;;;21.50;1.00;;;;;;2280366;60;1183;-89
2023/10/01 07:29:33;539515.00;1.80;929.89;75255.00;0.25;130.84;;;;;21.60;1.00;;;;;;2280330;60;957;-88
2023/10/01 07:32:02;460845.00;1.54;794.44;12300.00;0.04;21.93;;;;;22.20;1.00;;;;;;2280386;60;1277;-88
2023/10/01 07:34:31;547307.00;1.82;943.32;0.00;0.00;0.62;;;;;22.10;1.00;;;;;;2280498;60;1009;-89
2023/10/01 07:37:00;710222.00;2.37;1224.97;88892.00;0.30;154.39;;;;;22.20;1.00;;;;;;2280528;60;1160;-89
2023/10/01 07:39:36;743468.00;2.48;1282.70;88785.00;0.30;154.21;;;;;22.80;1.00;;;;;;2280435;60;1525;-90
2023/10/01 07:42:04;907003.00;3.02;1568.42;69671.00;0.23;121.19;;;;;22.60;1.00;;;;;;2280429;60;1934;-88
2023/10/01 07:44:31;535619.00;1.79;923.17;90910.00;0.30;157.88;;;;;22.30;1.00;;;;;;2280447;60;1035;-88
2023/10/01 07:46:59;593975.00;1.98;1023.82;73299.00;0.24;127.46;;;;;23.00;1.00;;;;;;2280448;60;995;-88
2023/10/01 07:49:41;587853.00;1.96;1013.25;69429.00;0.23;120.77;;;;;23.30;1.00;;;;;;2280436;60;1124;-88
2023/10/01 07:52:10;494731.00;1.65;852.75;0.00;0.00;0.62;;;;;22.70;1.00;;;;;;2280332;60;1628;-90
2023/10/01 07:54:39;414798.00;1.38;715.25;45074.00;0.15;78.67;;;;;22.40;1.00;;;;;;2280439;60;1082;-88
2023/10/01 07:57:08;755017.00;2.52;1302.78;56702.00;0.19;98.78;;;;;22.70;1.00;;;;;;2280424;60;1125;-87
2023/10/01 07:59:35;369358.00;1.23;637.13;19286.00;0.06;34.03;;;;;23.00;1.00;;;;;;2280412;60;1037;-88
2023/10/01 08:02:19;596179.00;1.99;1027.62;15396.00;0.05;27.30;;;;;22.40;1.00;;;;;;2280317;60;2029;-88
2023/10/01 08:05:00;441180.00;1.47;760.61;6556.00;0.02;11.98;;;;;22.80;1.00;;;;;;2280375;60;1031;-88
2023/10/01 08:07:30;158570.00;0.53;274.58;0.00;0.00;0.62;;;;;23.40;1.00;;;;;;2280276;60;1794;-88
2023/10/01 08:10:04;292248.00;0.97;504.59;0.00;0.00;0.62;;;;;23.10;1.00;;;;;;2280368;60;1392;-88
2023/10/01 08:13:04;28969.00;0.10;50.80;0.00;0.00;0.62;;;;;23.40;1.00;;;;;;2280255;60;1797;-87
2023/10/01 08:15:32;172638.00;0.58;298.81;0.00;0.00;0.62;;;;;23.60;1.00;;;;;;2280195;60;1332;-86
2023/10/01 08:18:19;35640.00;0.12;62.34;0.00;0.00;0.62;;;;;23.20;1.00;;;;;;2280309;60;1176;-88
2023/10/01 08:20:58;84495.00;0.28;146.80;0.00;0.00;0.62;;;;;23.70;1.00;;;;;;2280194;60;2012;-88
2023/10/01 08:23:26;96850.00;0.32;168.13;0.00;0.00;0.62;;;;;23.80;1.00;;;;;;2280406;60;1027;-86
2023/10/01 08:25:55;360139.00;1.20;621.29;53285.00;0.18;92.87;;;;;23.70;1.00;;;;;;2281001;60;1916;-87
2023/10/01 08:28:43;27263.00;0.09;47.85;0.00;0.00;0.62;;;;;23.50;1.00;;;;;;2281027;60;1052;-88
2023/10/01 08:34:02;134029.00;0.45;232.28;0.00;0.00;0.62;;;;;23.50;1.00;;;;;;2276612;60;1402;-87
2023/10/01 08:36:35;20118.00;0.07;35.47;0.00;0.00;0.62;;;;;23.70;1.00;;;;;;2281039;60;1101;-87
2023/10/01 08:41:50;111842.00;0.37;194.01;0.00;0.00;0.62;;;;;23.30;1.00;;;;;;2281005;60;2006;-89
2023/10/01 08:44:30;183099.00;0.61;316.83;0.00;0.00;0.62;;;;;23.00;1.00;;;;;;2280957;60;1601;-88
2023/10/01 08:47:21;47514.00;0.16;82.89;0.00;0.00;0.62;;;;;22.70;1.00;;;;;;2280927;60;1740;-88
2023/10/01 08:49:50;236978.00;0.79;409.55;0.00;0.00;0.62;;;;;22.30;1.00;;;;;;2280880;60;1366;-88
2023/10/01 08:52:25;21314.00;0.07;37.55;0.00;0.00;0.62;;;;;22.40;1.00;;;;;;2280984;60;1148;-88
2023/10/01 08:54:53;0.00;0.00;0.62;0.00;0.00;0.62;;;;;22.50;1.00;;;;;;2280933;60;1106;-86
2023/10/01 08:57:36;64755.00;0.22;112.70;0.00;0.00;0.62;;;;;22.50;1.00;;;;;;2280924;60;1102;-88
2023/10/01 09:00:17;176231.00;0.59;305.00;0.00;0.00;0.62;;;;;22.90;1.00;;;;;;2280892;60;1420;-87
2023/10/01 09:02:44;241706.00;0.81;417.69;0.00;0.00;0.62;;;;;22.30;1.00;;;;;;2280765;60;1545;-89
2023/10/01 09:05:12;221683.00;0.74;383.24;0.00;0.00;0.62;;;;;22.60;1.00;;;;;;2280900;60;1070;-88
2023/10/01 09:07:47;357140.00;1.19;616.13;0.00;0.00;0.62;;;;;22.90;1.00;;;;;;2280834;60;1723;-88
2023/10/01 09:10:17;67125.00;0.22;116.79;0.00;0.00;0.62;;;;;22.90;1.00;;;;;;2280968;60;1396;-88
2023/10/01 09:12:49;3758.00;0.01;7.13;0.00;0.00;0.62;;;;;22.70;1.00;;;;;;2280899;60;1149;-89
2023/10/01 09:15:38;2652.00;0.01;5.22;0.00;0.00;0.62;;;;;22.50;1.00;;;;;;2280970;60;993;-88
2023/10/01 09:18:10;41328.00;0.14;72.19;0.00;0.00;0.62;;;;;22.20;1.00;;;;;;2280902;60;1191;-89
2023/10/01 09:20:39;273481.00;0.91;472.33;45395.00;0.15;79.22;;;;;22.40;1.00;;;;;;2280828;60;2010;-88
2023/10/01 09:23:06;439212.00;1.46;757.23;16264.00;0.05;28.80;;;;;22.40;1.00;;;;;;2280838;60;1028;-88
2023/10/01 09:25:39;91652.00;0.31;159.16;0.00;0.00;0.62;;;;;22.50;1.00;;;;;;2280831;60;1044;-88
2023/10/01 09:28:29;196903.00;0.66;340.59;0.00;0.00;0.62;;;;;22.40;1.00;;;;;;2280807;60;1757;-89
2023/10/01 09:31:02;237.00;0.00;1.03;0.00;0.00;0.62;;;;;22.50;1.00;;;;;;2280671;60;1728;-88
2023/10/01 09:33:32;159988.00;0.53;277.02;0.00;0.00;0.62;;;;;22.50;1.00;;;;;;2280859;60;1042;-88
2023/10/01 09:36:00;202436.00;0.67;350.12;0.00;0.00;0.62;;;;;22.70;1.00;;;;;;2280588;60;1097;-89
2023/10/01 09:38:30;456178.00;1.52;786.41;13264.00;0.04;23.60;;;;;23.10;1.00;;;;;;2280830;60;1067;-88
2023/10/01 09:40:58;133058.00;0.44;230.60;0.00;0.00;0.62;;;;;23.50;1.00;;;;;;2280753;60;1919;-87
2023/10/01 09:43:27;237017.00;0.79;409.62;0.00;0.00;0.62;;;;;23.70;1.00;;;;;;2280790;60;2199;-88
2023/10/01 09:45:57;99162.00;0.33;172.13;0.00;0.00;0.62;;;;;23.80;1.00;;;;;;2280760;60;1190;-89
2023/10/01 09:48:33;0.00;0.00;0.62;0.00;0.00;0.62;;;;;23.40;1.00;;;;;;2280760;60;1094;-89
2023/10/01 09:51:08;148232.00;0.49;256.76;0.00;0.00;0.62;;;;;23.30;1.00;;;;;;2280752;60;1387;-89
2023/10/01 09:53:44;71211.00;0.24;123.85;0.00;0.00;0.62;;;;;23.60;1.00;;;;;;2280741;60;1105;-86
2023/10/01 09:56:14;153101.00;0.51;265.15;0.00;0.00;0.62;;;;;24.10;1.00;;;;;;2280664;60;1274;-87
2023/10/01 09:58:49;74281.00;0.25;129.16;0.00;0.00;0.62;;;;;24.00;1.00;;;;;;2280559;60;1129;-87
2023/10/01 10:01:18;203952.00;0.68;352.73;0.00;0.00;0.62;;;;;24.30;1.00;;;;;;2280638;60;2000;-88
2023/10/01 10:03:46;204574.00;0.68;353.80;0.00;0.00;0.62;;;;;24.00;1.00;;;;;;2280689;60;1796;-88
2023/10/01 10:06:24;232791.00;0.78;402.35;0.00;0.00;0.62;;;;;23.80;1.00;;;;;;2280800;60;1001;-88
2023/10/01 10:09:03;274551.00;0.92;474.17;41475.00;0.14;72.44;;;;;24.00;1.00;;;;;;2280773;60;1035;-87
2023/10/01 10:11:36;90031.00;0.30;156.36;0.00;0.00;0.62;;;;;23.90;1.00;;;;;;2280616;60;1567;-88
2023/10/01 10:14:44;36427.00;0.12;63.71;0.00;0.00;0.62;;;;;23.50;1.00;;;;;;2280711;60;1011;-89
2023/10/01 10:17:19;18133.00;0.06;32.04;0.00;0.00;0.62;;;;;23.90;1.00;;;;;;2280663;60;1111;-88
2023/10/01 10:20:00;175314.00;0.58;303.42;0.00;0.00;0.62;;;;;24.10;1.00;;;;;;2280667;60;1452;-87
2023/10/01 10:22:32;223231.00;0.74;385.90;0.00;0.00;0.62;;;;;23.80;1.00;;;;;;2280522;60;2012;-87
2023/10/01 10:25:21;223085.00;0.74;385.65;0.00;0.00;0.62;;;;;23.70;1.00;;;;;;2280448;60;1669;-89